Airfield :
LOGIN :

Register | Disclaimer

   EN    FR    IT 

 










Legend :    VFR   Marginal VFR   IFR   Intensive IFR   Very Intensive IFR
Visi :
Ceiling :
>= 8 km
>= 3000ft
5 to 8 km
1000 to 3000 ft
1500m to 5 km
500 to 1000 ft
800 to 1500m
200 to 500 ft
< 800m
< 200 ft
Symbols :   Thunderstorms  Fog  Heavy snow  Heavy precipitations  Wind > 20 kt
SIGMETs :     Misc.  Thunderstorms  Icing  Turbulence  Mountain Waves  Volcanic Ashes







- Airport Elevation : 375 ft
- IATA code : MST


EHBK - Maastricht Aachen

CURRENT METAR :
  • 281255Z AUTO 24015KT 200V280 9999 FEW042 21/11 Q1013 NOSIG

EXPIRED METARs :
  • 281225Z AUTO 24015KT 200V270 9999 FEW044 20/11 Q1013 NOSIG
  • 281155Z AUTO 24011KT 190V290 9999 SCT037 BKN041 20/12 Q1013 NOSIG
  • 281125Z AUTO 24014KT 200V290 9999 SCT036 BKN040 BKN045 20/12 Q1013 NOSIG
  • 281055Z AUTO 24014KT 190V280 9999 FEW035 19/11 Q1012 NOSIG
  • 281025Z AUTO 24015KT 210V280 9999 BKN033 BKN039 20/12 Q1012 NOSIG

TAF TAF EHBK
Valid from the 28 at 06:00 until the 29 at 12:00 UTC


280449Z 2806/2912 22007KT 9999 SCT025
BECMG 2807/2810 25014G25KT
BECMG 2818/2821 19007KT
BECMG 2903/2906 23012G22KT
No reported NOTAMs for that airfield.



MET'MAP, your aeronautical weather chart ! - Copyright ORBIFLY December 2007 - Disclaimer

ORBIFLY MET'MAP TEAM :

Programming & Development : Alexandra Zaïnal
Concept & Development : Baudouin d'Aumeries
Co-Development & Prog : Marc-Olivier Méhu
Technical & hardware support : Manuel Goepfert

Contact : metmap@orbifly.com




SOURCES & CREDITS :

   NOAA